sensor_id;sensor_type;location;lat;lon;timestamp;P1;durP1;ratioP1;P2;durP2;ratioP2
5391;SDS011;2719;53.624;9.786;2024-01-16T00:02:17;5.30;;;1.40;;
5391;SDS011;2719;53.624;9.786;2024-01-16T00:04:44;4.50;;;1.50;;
5391;SDS011;2719;53.624;9.786;2024-01-16T00:07:10;6.70;;;1.50;;
5391;SDS011;2719;53.624;9.786;2024-01-16T00:09:37;6.30;;;1.97;;
5391;SDS011;2719;53.624;9.786;2024-01-16T00:12:04;5.83;;;1.43;;
5391;SDS011;2719;53.624;9.786;2024-01-16T00:14:34;9.30;;;2.47;;
5391;SDS011;2719;53.624;9.786;2024-01-16T00:17:01;8.67;;;1.40;;
5391;SDS011;2719;53.624;9.786;2024-01-16T00:19:29;4.33;;;1.83;;
5391;SDS011;2719;53.624;9.786;2024-01-16T00:21:56;2.47;;;1.23;;
5391;SDS011;2719;53.624;9.786;2024-01-16T00:24:23;12.87;;;1.70;;
5391;SDS011;2719;53.624;9.786;2024-01-16T00:26:50;4.10;;;1.10;;
5391;SDS011;2719;53.624;9.786;2024-01-16T00:29:16;2.73;;;1.00;;
5391;SDS011;2719;53.624;9.786;2024-01-16T00:31:43;2.20;;;0.80;;
5391;SDS011;2719;53.624;9.786;2024-01-16T00:34:09;4.00;;;1.10;;
5391;SDS011;2719;53.624;9.786;2024-01-16T00:36:37;4.17;;;1.53;;
5391;SDS011;2719;53.624;9.786;2024-01-16T00:39:04;4.37;;;1.20;;
5391;SDS011;2719;53.624;9.786;2024-01-16T00:41:32;8.70;;;1.40;;
5391;SDS011;2719;53.624;9.786;2024-01-16T00:43:58;4.50;;;1.23;;
5391;SDS011;2719;53.624;9.786;2024-01-16T00:46:25;3.37;;;1.37;;
5391;SDS011;2719;53.624;9.786;2024-01-16T00:48:52;9.70;;;1.20;;
5391;SDS011;2719;53.624;9.786;2024-01-16T00:51:18;2.83;;;1.20;;
5391;SDS011;2719;53.624;9.786;2024-01-16T00:53:46;3.07;;;1.17;;
5391;SDS011;2719;53.624;9.786;2024-01-16T00:56:13;2.00;;;0.83;;
5391;SDS011;2719;53.624;9.786;2024-01-16T00:58:40;5.87;;;1.90;;
5391;SDS011;2719;53.624;9.786;2024-01-16T01:01:06;5.13;;;2.00;;
5391;SDS011;2719;53.624;9.786;2024-01-16T01:03:33;7.53;;;1.63;;
5391;SDS011;2719;53.624;9.786;2024-01-16T01:06:00;4.00;;;1.30;;
5391;SDS011;2719;53.624;9.786;2024-01-16T01:08:27;6.20;;;1.20;;
5391;SDS011;2719;53.624;9.786;2024-01-16T01:10:55;5.63;;;1.52;;
5391;SDS011;2719;53.624;9.786;2024-01-16T01:13:22;2.70;;;0.90;;
5391;SDS011;2719;53.624;9.786;2024-01-16T01:15:50;5.23;;;1.17;;
5391;SDS011;2719;53.624;9.786;2024-01-16T01:18:16;4.40;;;1.07;;
5391;SDS011;2719;53.624;9.786;2024-01-16T01:20:43;7.93;;;1.77;;
5391;SDS011;2719;53.624;9.786;2024-01-16T01:23:09;4.13;;;1.27;;
5391;SDS011;2719;53.624;9.786;2024-01-16T01:25:36;3.23;;;1.33;;
5391;SDS011;2719;53.624;9.786;2024-01-16T01:28:05;2.63;;;0.80;;
5391;SDS011;2719;53.624;9.786;2024-01-16T01:30:31;4.57;;;1.30;;
5391;SDS011;2719;53.624;9.786;2024-01-16T01:32:58;2.80;;;0.97;;
5391;SDS011;2719;53.624;9.786;2024-01-16T01:35:25;3.40;;;0.90;;
5391;SDS011;2719;53.624;9.786;2024-01-16T01:37:52;7.10;;;1.40;;
5391;SDS011;2719;53.624;9.786;2024-01-16T01:40:18;2.67;;;1.40;;
5391;SDS011;2719;53.624;9.786;2024-01-16T01:42:45;3.77;;;1.10;;
5391;SDS011;2719;53.624;9.786;2024-01-16T01:45:13;4.40;;;1.20;;
5391;SDS011;2719;53.624;9.786;2024-01-16T01:47:40;2.63;;;1.10;;
5391;SDS011;2719;53.624;9.786;2024-01-16T01:50:08;2.60;;;1.13;;
5391;SDS011;2719;53.624;9.786;2024-01-16T01:52:35;2.47;;;1.10;;
5391;SDS011;2719;53.624;9.786;2024-01-16T01:55:04;1.52;;;0.93;;
5391;SDS011;2719;53.624;9.786;2024-01-16T01:57:34;2.60;;;1.23;;
5391;SDS011;2719;53.624;9.786;2024-01-16T02:00:01;5.10;;;1.97;;
5391;SDS011;2719;53.624;9.786;2024-01-16T02:02:30;6.03;;;1.20;;
5391;SDS011;2719;53.624;9.786;2024-01-16T02:04:58;2.63;;;1.47;;
5391;SDS011;2719;53.624;9.786;2024-01-16T02:07:25;6.27;;;1.90;;
5391;SDS011;2719;53.624;9.786;2024-01-16T02:09:51;4.17;;;1.73;;
5391;SDS011;2719;53.624;9.786;2024-01-16T02:12:18;4.50;;;2.08;;
5391;SDS011;2719;53.624;9.786;2024-01-16T02:14:45;3.97;;;1.93;;
5391;SDS011;2719;53.624;9.786;2024-01-16T02:17:12;3.80;;;1.83;;
5391;SDS011;2719;53.624;9.786;2024-01-16T02:19:40;5.00;;;1.60;;
5391;SDS011;2719;53.624;9.786;2024-01-16T02:22:07;6.60;;;1.80;;
5391;SDS011;2719;53.624;9.786;2024-01-16T02:24:40;7.23;;;1.87;;
5391;SDS011;2719;53.624;9.786;2024-01-16T02:27:06;5.87;;;2.10;;
5391;SDS011;2719;53.624;9.786;2024-01-16T02:29:33;3.50;;;1.80;;
5391;SDS011;2719;53.624;9.786;2024-01-16T02:32:02;5.10;;;2.50;;
5391;SDS011;2719;53.624;9.786;2024-01-16T02:34:29;3.73;;;2.03;;
5391;SDS011;2719;53.624;9.786;2024-01-16T02:36:55;5.87;;;3.37;;
5391;SDS011;2719;53.624;9.786;2024-01-16T02:39:22;7.40;;;2.87;;
5391;SDS011;2719;53.624;9.786;2024-01-16T02:41:50;6.93;;;2.30;;
5391;SDS011;2719;53.624;9.786;2024-01-16T02:44:17;5.07;;;2.83;;
5391;SDS011;2719;53.624;9.786;2024-01-16T02:46:43;6.50;;;2.80;;
5391;SDS011;2719;53.624;9.786;2024-01-16T02:49:10;4.80;;;1.90;;
5391;SDS011;2719;53.624;9.786;2024-01-16T02:51:37;5.00;;;2.40;;
5391;SDS011;2719;53.624;9.786;2024-01-16T02:54:04;7.80;;;3.10;;
5391;SDS011;2719;53.624;9.786;2024-01-16T02:56:32;6.17;;;2.10;;
5391;SDS011;2719;53.624;9.786;2024-01-16T02:59:00;4.90;;;2.50;;
5391;SDS011;2719;53.624;9.786;2024-01-16T03:01:26;4.60;;;2.40;;
5391;SDS011;2719;53.624;9.786;2024-01-16T03:03:53;5.83;;;3.17;;
5391;SDS011;2719;53.624;9.786;2024-01-16T03:06:23;6.30;;;2.30;;
5391;SDS011;2719;53.624;9.786;2024-01-16T03:08:49;7.80;;;2.87;;
5391;SDS011;2719;53.624;9.786;2024-01-16T03:11:17;5.20;;;2.50;;
5391;SDS011;2719;53.624;9.786;2024-01-16T03:13:43;3.53;;;2.03;;
5391;SDS011;2719;53.624;9.786;2024-01-16T03:16:11;5.57;;;2.40;;
5391;SDS011;2719;53.624;9.786;2024-01-16T03:18:38;4.53;;;1.90;;
5391;SDS011;2719;53.624;9.786;2024-01-16T03:21:05;5.57;;;2.07;;
5391;SDS011;2719;53.624;9.786;2024-01-16T03:23:32;5.10;;;2.13;;
5391;SDS011;2719;53.624;9.786;2024-01-16T03:25:59;3.65;;;2.35;;
5391;SDS011;2719;53.624;9.786;2024-01-16T03:28:26;5.32;;;2.65;;
5391;SDS011;2719;53.624;9.786;2024-01-16T03:30:52;9.83;;;3.20;;
5391;SDS011;2719;53.624;9.786;2024-01-16T03:33:21;6.03;;;3.00;;
5391;SDS011;2719;53.624;9.786;2024-01-16T03:35:48;4.93;;;2.00;;
5391;SDS011;2719;53.624;9.786;2024-01-16T03:38:15;9.03;;;4.00;;
5391;SDS011;2719;53.624;9.786;2024-01-16T03:40:41;6.22;;;3.50;;
5391;SDS011;2719;53.624;9.786;2024-01-16T03:43:08;6.60;;;2.95;;
5391;SDS011;2719;53.624;9.786;2024-01-16T03:45:35;7.03;;;3.20;;
5391;SDS011;2719;53.624;9.786;2024-01-16T03:48:01;4.97;;;2.17;;
5391;SDS011;2719;53.624;9.786;2024-01-16T03:50:30;14.03;;;4.73;;
5391;SDS011;2719;53.624;9.786;2024-01-16T03:52:56;13.43;;;3.20;;
5391;SDS011;2719;53.624;9.786;2024-01-16T03:55:23;7.00;;;2.50;;
5391;SDS011;2719;53.624;9.786;2024-01-16T03:57:50;7.27;;;2.70;;
5391;SDS011;2719;53.624;9.786;2024-01-16T04:00:17;8.13;;;3.20;;
5391;SDS011;2719;53.624;9.786;2024-01-16T04:02:43;7.70;;;2.50;;
5391;SDS011;2719;53.624;9.786;2024-01-16T04:05:10;17.80;;;2.90;;
5391;SDS011;2719;53.624;9.786;2024-01-16T04:07:38;8.33;;;2.80;;
5391;SDS011;2719;53.624;9.786;2024-01-16T04:10:06;7.80;;;3.07;;
5391;SDS011;2719;53.624;9.786;2024-01-16T04:12:33;6.53;;;3.40;;
5391;SDS011;2719;53.624;9.786;2024-01-16T04:14:59;4.47;;;2.33;;
5391;SDS011;2719;53.624;9.786;2024-01-16T04:17:26;5.10;;;2.80;;
5391;SDS011;2719;53.624;9.786;2024-01-16T04:19:53;13.40;;;3.10;;
5391;SDS011;2719;53.624;9.786;2024-01-16T04:22:20;4.40;;;2.23;;
5391;SDS011;2719;53.624;9.786;2024-01-16T04:24:48;4.97;;;1.87;;
5391;SDS011;2719;53.624;9.786;2024-01-16T04:27:14;3.95;;;2.20;;
5391;SDS011;2719;53.624;9.786;2024-01-16T04:29:41;5.20;;;2.30;;
5391;SDS011;2719;53.624;9.786;2024-01-16T04:32:08;4.07;;;2.40;;
5391;SDS011;2719;53.624;9.786;2024-01-16T04:34:35;4.03;;;1.92;;
5391;SDS011;2719;53.624;9.786;2024-01-16T04:37:01;11.23;;;2.40;;
5391;SDS011;2719;53.624;9.786;2024-01-16T04:39:29;4.57;;;1.80;;
5391;SDS011;2719;53.624;9.786;2024-01-16T04:41:56;5.35;;;2.42;;
5391;SDS011;2719;53.624;9.786;2024-01-16T04:44:23;5.30;;;2.25;;
5391;SDS011;2719;53.624;9.786;2024-01-16T04:46:50;4.68;;;2.35;;
5391;SDS011;2719;53.624;9.786;2024-01-16T04:49:17;5.53;;;2.00;;
5391;SDS011;2719;53.624;9.786;2024-01-16T04:51:44;5.25;;;1.90;;
5391;SDS011;2719;53.624;9.786;2024-01-16T04:54:11;8.73;;;2.17;;
5391;SDS011;2719;53.624;9.786;2024-01-16T04:56:38;5.50;;;1.42;;
5391;SDS011;2719;53.624;9.786;2024-01-16T04:59:06;6.55;;;2.30;;
5391;SDS011;2719;53.624;9.786;2024-01-16T05:01:32;5.10;;;2.35;;
5391;SDS011;2719;53.624;9.786;2024-01-16T05:03:59;4.07;;;1.80;;
5391;SDS011;2719;53.624;9.786;2024-01-16T05:06:26;5.53;;;1.80;;
5391;SDS011;2719;53.624;9.786;2024-01-16T05:08:52;6.78;;;1.85;;
5391;SDS011;2719;53.624;9.786;2024-01-16T05:11:19;4.03;;;1.65;;
5391;SDS011;2719;53.624;9.786;2024-01-16T05:13:45;4.13;;;1.50;;
5391;SDS011;2719;53.624;9.786;2024-01-16T05:16:13;5.03;;;1.90;;
5391;SDS011;2719;53.624;9.786;2024-01-16T05:18:41;4.40;;;1.80;;
5391;SDS011;2719;53.624;9.786;2024-01-16T05:21:08;4.23;;;1.83;;
5391;SDS011;2719;53.624;9.786;2024-01-16T05:23:34;4.30;;;2.10;;
5391;SDS011;2719;53.624;9.786;2024-01-16T05:26:02;2.83;;;1.23;;
5391;SDS011;2719;53.624;9.786;2024-01-16T05:28:29;3.33;;;1.55;;
5391;SDS011;2719;53.624;9.786;2024-01-16T05:30:55;7.93;;;1.98;;
5391;SDS011;2719;53.624;9.786;2024-01-16T05:33:23;7.13;;;1.30;;
5391;SDS011;2719;53.624;9.786;2024-01-16T05:35:50;1.92;;;0.95;;
5391;SDS011;2719;53.624;9.786;2024-01-16T05:38:16;2.45;;;1.00;;
5391;SDS011;2719;53.624;9.786;2024-01-16T05:40:43;2.17;;;0.82;;
5391;SDS011;2719;53.624;9.786;2024-01-16T05:43:10;1.83;;;0.70;;
5391;SDS011;2719;53.624;9.786;2024-01-16T05:45:36;2.85;;;0.80;;
5391;SDS011;2719;53.624;9.786;2024-01-16T05:48:03;1.98;;;0.80;;
5391;SDS011;2719;53.624;9.786;2024-01-16T05:50:33;5.28;;;0.95;;
5391;SDS011;2719;53.624;9.786;2024-01-16T05:53:00;2.15;;;0.70;;
5391;SDS011;2719;53.624;9.786;2024-01-16T05:55:27;2.67;;;0.55;;
5391;SDS011;2719;53.624;9.786;2024-01-16T05:57:54;2.17;;;0.63;;
5391;SDS011;2719;53.624;9.786;2024-01-16T06:00:20;1.60;;;0.47;;
5391;SDS011;2719;53.624;9.786;2024-01-16T06:02:47;4.25;;;0.60;;
5391;SDS011;2719;53.624;9.786;2024-01-16T06:05:14;5.25;;;0.50;;
5391;SDS011;2719;53.624;9.786;2024-01-16T06:07:42;1.35;;;0.50;;
5391;SDS011;2719;53.624;9.786;2024-01-16T06:10:11;2.30;;;0.53;;
5391;SDS011;2719;53.624;9.786;2024-01-16T06:12:38;1.70;;;0.50;;
5391;SDS011;2719;53.624;9.786;2024-01-16T06:15:05;2.20;;;0.50;;
5391;SDS011;2719;53.624;9.786;2024-01-16T06:17:33;6.38;;;0.50;;
5391;SDS011;2719;53.624;9.786;2024-01-16T06:20:00;1.42;;;0.50;;
5391;SDS011;2719;53.624;9.786;2024-01-16T06:22:26;1.55;;;0.47;;
5391;SDS011;2719;53.624;9.786;2024-01-16T06:24:54;1.65;;;0.60;;
5391;SDS011;2719;53.624;9.786;2024-01-16T06:27:21;1.98;;;0.60;;
5391;SDS011;2719;53.624;9.786;2024-01-16T06:29:48;1.65;;;0.90;;
5391;SDS011;2719;53.624;9.786;2024-01-16T06:32:16;1.58;;;0.52;;
5391;SDS011;2719;53.624;9.786;2024-01-16T06:34:42;8.18;;;0.85;;
5391;SDS011;2719;53.624;9.786;2024-01-16T06:37:09;3.13;;;0.57;;
5391;SDS011;2719;53.624;9.786;2024-01-16T06:39:36;2.25;;;0.70;;
5391;SDS011;2719;53.624;9.786;2024-01-16T06:42:04;4.30;;;0.85;;
5391;SDS011;2719;53.624;9.786;2024-01-16T06:44:31;2.30;;;0.60;;
5391;SDS011;2719;53.624;9.786;2024-01-16T06:46:58;6.85;;;0.60;;
5391;SDS011;2719;53.624;9.786;2024-01-16T06:49:24;3.85;;;0.70;;
5391;SDS011;2719;53.624;9.786;2024-01-16T06:51:52;1.55;;;0.60;;
5391;SDS011;2719;53.624;9.786;2024-01-16T06:54:18;3.03;;;0.82;;
5391;SDS011;2719;53.624;9.786;2024-01-16T06:56:46;3.13;;;0.70;;
5391;SDS011;2719;53.624;9.786;2024-01-16T06:59:15;2.55;;;0.70;;
5391;SDS011;2719;53.624;9.786;2024-01-16T07:01:44;2.85;;;0.50;;
5391;SDS011;2719;53.624;9.786;2024-01-16T07:04:11;13.18;;;0.60;;
5391;SDS011;2719;53.624;9.786;2024-01-16T07:06:39;2.13;;;0.60;;
5391;SDS011;2719;53.624;9.786;2024-01-16T07:09:05;1.40;;;0.50;;
5391;SDS011;2719;53.624;9.786;2024-01-16T07:11:35;3.15;;;0.80;;
5391;SDS011;2719;53.624;9.786;2024-01-16T07:14:02;8.57;;;0.90;;
5391;SDS011;2719;53.624;9.786;2024-01-16T07:16:30;6.00;;;0.57;;
5391;SDS011;2719;53.624;9.786;2024-01-16T07:18:57;3.90;;;0.70;;
5391;SDS011;2719;53.624;9.786;2024-01-16T07:21:24;4.93;;;0.80;;
5391;SDS011;2719;53.624;9.786;2024-01-16T07:23:51;5.40;;;0.73;;
5391;SDS011;2719;53.624;9.786;2024-01-16T07:26:17;11.10;;;1.10;;
5391;SDS011;2719;53.624;9.786;2024-01-16T07:28:44;7.32;;;2.25;;
5391;SDS011;2719;53.624;9.786;2024-01-16T07:31:12;4.70;;;0.70;;
5391;SDS011;2719;53.624;9.786;2024-01-16T07:33:40;3.23;;;1.13;;
5391;SDS011;2719;53.624;9.786;2024-01-16T07:36:07;5.40;;;1.25;;
5391;SDS011;2719;53.624;9.786;2024-01-16T07:38:35;2.13;;;0.60;;
5391;SDS011;2719;53.624;9.786;2024-01-16T07:41:02;1.30;;;0.50;;
5391;SDS011;2719;53.624;9.786;2024-01-16T07:43:29;1.85;;;0.55;;
5391;SDS011;2719;53.624;9.786;2024-01-16T07:45:55;3.60;;;0.60;;
5391;SDS011;2719;53.624;9.786;2024-01-16T07:48:22;2.55;;;0.50;;
5391;SDS011;2719;53.624;9.786;2024-01-16T07:50:50;2.47;;;0.70;;
5391;SDS011;2719;53.624;9.786;2024-01-16T07:53:17;2.53;;;0.60;;
5391;SDS011;2719;53.624;9.786;2024-01-16T07:55:44;1.90;;;0.60;;
5391;SDS011;2719;53.624;9.786;2024-01-16T07:58:11;4.07;;;0.60;;
5391;SDS011;2719;53.624;9.786;2024-01-16T08:00:38;9.17;;;0.90;;
5391;SDS011;2719;53.624;9.786;2024-01-16T08:03:07;3.65;;;0.80;;
5391;SDS011;2719;53.624;9.786;2024-01-16T08:05:35;9.45;;;1.00;;
5391;SDS011;2719;53.624;9.786;2024-01-16T08:08:03;4.03;;;0.95;;
5391;SDS011;2719;53.624;9.786;2024-01-16T08:10:30;7.37;;;0.80;;
5391;SDS011;2719;53.624;9.786;2024-01-16T08:12:57;2.13;;;0.63;;
5391;SDS011;2719;53.624;9.786;2024-01-16T08:15:24;4.82;;;0.88;;
5391;SDS011;2719;53.624;9.786;2024-01-16T08:17:51;2.33;;;0.60;;
5391;SDS011;2719;53.624;9.786;2024-01-16T08:20:18;1.73;;;0.53;;
5391;SDS011;2719;53.624;9.786;2024-01-16T08:22:44;2.75;;;1.15;;
5391;SDS011;2719;53.624;9.786;2024-01-16T08:25:12;7.60;;;1.48;;
5391;SDS011;2719;53.624;9.786;2024-01-16T08:27:39;5.25;;;1.08;;
5391;SDS011;2719;53.624;9.786;2024-01-16T08:30:06;2.63;;;0.70;;
5391;SDS011;2719;53.624;9.786;2024-01-16T08:32:33;7.28;;;0.77;;
5391;SDS011;2719;53.624;9.786;2024-01-16T08:35:00;3.73;;;0.67;;
5391;SDS011;2719;53.624;9.786;2024-01-16T08:37:27;3.22;;;0.80;;
5391;SDS011;2719;53.624;9.786;2024-01-16T08:39:53;5.20;;;0.80;;
5391;SDS011;2719;53.624;9.786;2024-01-16T08:42:21;1.30;;;0.50;;
5391;SDS011;2719;53.624;9.786;2024-01-16T08:44:48;7.05;;;0.80;;
5391;SDS011;2719;53.624;9.786;2024-01-16T08:47:14;3.10;;;0.80;;
5391;SDS011;2719;53.624;9.786;2024-01-16T08:49:41;6.50;;;0.90;;
5391;SDS011;2719;53.624;9.786;2024-01-16T08:52:08;2.47;;;0.60;;
5391;SDS011;2719;53.624;9.786;2024-01-16T08:54:35;1.80;;;0.93;;
5391;SDS011;2719;53.624;9.786;2024-01-16T08:57:01;11.40;;;1.00;;
5391;SDS011;2719;53.624;9.786;2024-01-16T08:59:30;3.45;;;0.77;;
5391;SDS011;2719;53.624;9.786;2024-01-16T09:01:57;3.25;;;0.57;;
5391;SDS011;2719;53.624;9.786;2024-01-16T09:04:24;6.65;;;1.02;;
5391;SDS011;2719;53.624;9.786;2024-01-16T09:06:50;7.70;;;0.73;;
5391;SDS011;2719;53.624;9.786;2024-01-16T09:09:18;3.58;;;0.80;;
5391;SDS011;2719;53.624;9.786;2024-01-16T09:11:44;4.93;;;1.20;;
5391;SDS011;2719;53.624;9.786;2024-01-16T09:14:11;5.40;;;0.60;;
5391;SDS011;2719;53.624;9.786;2024-01-16T09:16:39;7.47;;;1.25;;
5391;SDS011;2719;53.624;9.786;2024-01-16T09:19:06;4.60;;;0.90;;
5391;SDS011;2719;53.624;9.786;2024-01-16T09:21:34;2.75;;;0.60;;
5391;SDS011;2719;53.624;9.786;2024-01-16T09:24:01;4.28;;;0.60;;
5391;SDS011;2719;53.624;9.786;2024-01-16T09:26:27;4.63;;;1.10;;
5391;SDS011;2719;53.624;9.786;2024-01-16T09:28:56;5.65;;;1.17;;
5391;SDS011;2719;53.624;9.786;2024-01-16T09:31:23;3.20;;;0.80;;
5391;SDS011;2719;53.624;9.786;2024-01-16T09:33:51;5.60;;;0.88;;
5391;SDS011;2719;53.624;9.786;2024-01-16T09:36:17;2.25;;;0.65;;
5391;SDS011;2719;53.624;9.786;2024-01-16T09:38:44;4.30;;;0.60;;
5391;SDS011;2719;53.624;9.786;2024-01-16T09:41:11;8.53;;;1.27;;
5391;SDS011;2719;53.624;9.786;2024-01-16T09:43:37;3.95;;;0.60;;
5391;SDS011;2719;53.624;9.786;2024-01-16T09:46:04;2.47;;;0.60;;
5391;SDS011;2719;53.624;9.786;2024-01-16T09:48:33;4.85;;;0.80;;
5391;SDS011;2719;53.624;9.786;2024-01-16T09:51:01;3.45;;;0.75;;
5391;SDS011;2719;53.624;9.786;2024-01-16T09:53:28;4.50;;;0.95;;
5391;SDS011;2719;53.624;9.786;2024-01-16T09:55:54;8.48;;;0.50;;
5391;SDS011;2719;53.624;9.786;2024-01-16T09:58:27;8.27;;;0.70;;
5391;SDS011;2719;53.624;9.786;2024-01-16T10:00:58;7.70;;;0.73;;
5391;SDS011;2719;53.624;9.786;2024-01-16T10:03:25;3.60;;;0.60;;
5391;SDS011;2719;53.624;9.786;2024-01-16T10:05:54;12.10;;;0.80;;
5391;SDS011;2719;53.624;9.786;2024-01-16T10:08:22;1.55;;;0.45;;
5391;SDS011;2719;53.624;9.786;2024-01-16T10:10:49;10.97;;;0.70;;
5391;SDS011;2719;53.624;9.786;2024-01-16T10:13:16;2.85;;;0.50;;
5391;SDS011;2719;53.624;9.786;2024-01-16T10:15:44;6.10;;;1.03;;
5391;SDS011;2719;53.624;9.786;2024-01-16T10:18:21;12.53;;;0.60;;
5391;SDS011;2719;53.624;9.786;2024-01-16T10:20:49;12.00;;;0.50;;
5391;SDS011;2719;53.624;9.786;2024-01-16T10:23:23;7.95;;;0.70;;
5391;SDS011;2719;53.624;9.786;2024-01-16T10:26:06;7.22;;;0.52;;
5391;SDS011;2719;53.624;9.786;2024-01-16T10:28:33;4.83;;;0.70;;
5391;SDS011;2719;53.624;9.786;2024-01-16T10:31:03;20.50;;;0.93;;
5391;SDS011;2719;53.624;9.786;2024-01-16T10:33:30;2.10;;;0.40;;
5391;SDS011;2719;53.624;9.786;2024-01-16T10:36:09;2.93;;;0.50;;
5391;SDS011;2719;53.624;9.786;2024-01-16T10:38:39;4.40;;;0.40;;
5391;SDS011;2719;53.624;9.786;2024-01-16T10:41:07;3.70;;;0.70;;
5391;SDS011;2719;53.624;9.786;2024-01-16T10:43:35;6.53;;;0.70;;
5391;SDS011;2719;53.624;9.786;2024-01-16T10:46:08;3.23;;;0.70;;
5391;SDS011;2719;53.624;9.786;2024-01-16T10:48:37;10.17;;;0.70;;
5391;SDS011;2719;53.624;9.786;2024-01-16T10:51:04;12.67;;;2.40;;
5391;SDS011;2719;53.624;9.786;2024-01-16T10:53:33;2.40;;;0.60;;
5391;SDS011;2719;53.624;9.786;2024-01-16T10:56:02;4.60;;;0.60;;
5391;SDS011;2719;53.624;9.786;2024-01-16T10:58:32;1.65;;;0.80;;
5391;SDS011;2719;53.624;9.786;2024-01-16T11:01:01;5.80;;;0.87;;
5391;SDS011;2719;53.624;9.786;2024-01-16T11:03:33;8.20;;;1.07;;
5391;SDS011;2719;53.624;9.786;2024-01-16T11:06:05;4.90;;;0.80;;
5391;SDS011;2719;53.624;9.786;2024-01-16T11:08:34;3.13;;;0.60;;
5391;SDS011;2719;53.624;9.786;2024-01-16T11:11:04;5.77;;;0.70;;
5391;SDS011;2719;53.624;9.786;2024-01-16T11:13:32;8.10;;;0.70;;
5391;SDS011;2719;53.624;9.786;2024-01-16T11:16:00;1.00;;;0.40;;
5391;SDS011;2719;53.624;9.786;2024-01-16T11:18:30;2.30;;;0.60;;
5391;SDS011;2719;53.624;9.786;2024-01-16T11:20:57;2.87;;;0.60;;
5391;SDS011;2719;53.624;9.786;2024-01-16T11:23:24;15.40;;;1.40;;
5391;SDS011;2719;53.624;9.786;2024-01-16T11:25:52;7.60;;;0.60;;
5391;SDS011;2719;53.624;9.786;2024-01-16T11:28:20;3.23;;;0.40;;
5391;SDS011;2719;53.624;9.786;2024-01-16T11:30:53;5.67;;;0.77;;
5391;SDS011;2719;53.624;9.786;2024-01-16T11:39:08;6.23;;;1.10;;
5391;SDS011;2719;53.624;9.786;2024-01-16T11:41:49;6.60;;;0.87;;
5391;SDS011;2719;53.624;9.786;2024-01-16T11:47:05;9.67;;;0.77;;
5391;SDS011;2719;53.624;9.786;2024-01-16T11:49:32;5.00;;;0.70;;
5391;SDS011;2719;53.624;9.786;2024-01-16T11:51:59;13.30;;;2.80;;
5391;SDS011;2719;53.624;9.786;2024-01-16T11:54:26;3.90;;;0.70;;
5391;SDS011;2719;53.624;9.786;2024-01-16T11:57:01;5.55;;;0.80;;
5391;SDS011;2719;53.624;9.786;2024-01-16T11:59:47;6.17;;;0.70;;
5391;SDS011;2719;53.624;9.786;2024-01-16T12:02:26;11.30;;;2.97;;
5391;SDS011;2719;53.624;9.786;2024-01-16T12:05:10;5.43;;;0.60;;
5391;SDS011;2719;53.624;9.786;2024-01-16T12:07:44;2.50;;;0.60;;
5391;SDS011;2719;53.624;9.786;2024-01-16T12:10:14;3.08;;;0.70;;
5391;SDS011;2719;53.624;9.786;2024-01-16T12:12:41;3.90;;;0.87;;
5391;SDS011;2719;53.624;9.786;2024-01-16T12:15:13;6.93;;;0.70;;
5391;SDS011;2719;53.624;9.786;2024-01-16T12:17:55;11.93;;;0.60;;
5391;SDS011;2719;53.624;9.786;2024-01-16T12:20:23;3.40;;;1.00;;
5391;SDS011;2719;53.624;9.786;2024-01-16T12:22:54;3.60;;;0.70;;
5391;SDS011;2719;53.624;9.786;2024-01-16T12:25:22;3.63;;;0.90;;
5391;SDS011;2719;53.624;9.786;2024-01-16T12:27:55;10.07;;;1.00;;
5391;SDS011;2719;53.624;9.786;2024-01-16T12:30:24;2.80;;;0.50;;
5391;SDS011;2719;53.624;9.786;2024-01-16T12:32:53;5.18;;;0.60;;
5391;SDS011;2719;53.624;9.786;2024-01-16T12:35:29;2.70;;;0.87;;
5391;SDS011;2719;53.624;9.786;2024-01-16T12:37:59;4.28;;;0.80;;
5391;SDS011;2719;53.624;9.786;2024-01-16T12:40:26;6.73;;;0.70;;
5391;SDS011;2719;53.624;9.786;2024-01-16T12:42:53;2.30;;;0.47;;
5391;SDS011;2719;53.624;9.786;2024-01-16T12:45:20;4.70;;;0.90;;
5391;SDS011;2719;53.624;9.786;2024-01-16T12:47:51;5.33;;;0.50;;
5391;SDS011;2719;53.624;9.786;2024-01-16T12:50:19;1.73;;;0.50;;
5391;SDS011;2719;53.624;9.786;2024-01-16T12:52:47;3.10;;;0.70;;
5391;SDS011;2719;53.624;9.786;2024-01-16T12:55:14;3.50;;;0.50;;
5391;SDS011;2719;53.624;9.786;2024-01-16T12:57:42;4.53;;;0.50;;
5391;SDS011;2719;53.624;9.786;2024-01-16T13:00:21;3.13;;;0.60;;
5391;SDS011;2719;53.624;9.786;2024-01-16T13:02:52;5.53;;;0.70;;
5391;SDS011;2719;53.624;9.786;2024-01-16T13:05:22;3.03;;;1.00;;
5391;SDS011;2719;53.624;9.786;2024-01-16T13:07:59;3.03;;;0.60;;
5391;SDS011;2719;53.624;9.786;2024-01-16T13:10:27;1.60;;;0.50;;
5391;SDS011;2719;53.624;9.786;2024-01-16T13:15:37;2.90;;;0.70;;
5391;SDS011;2719;53.624;9.786;2024-01-16T13:18:05;3.03;;;0.70;;
5391;SDS011;2719;53.624;9.786;2024-01-16T13:20:32;2.45;;;0.60;;
5391;SDS011;2719;53.624;9.786;2024-01-16T13:22:59;15.23;;;0.70;;
5391;SDS011;2719;53.624;9.786;2024-01-16T13:25:25;5.10;;;0.70;;
5391;SDS011;2719;53.624;9.786;2024-01-16T13:27:52;2.20;;;0.97;;
5391;SDS011;2719;53.624;9.786;2024-01-16T13:30:19;10.33;;;0.80;;
5391;SDS011;2719;53.624;9.786;2024-01-16T13:32:46;4.57;;;0.80;;
5391;SDS011;2719;53.624;9.786;2024-01-16T13:35:14;3.70;;;0.80;;
5391;SDS011;2719;53.624;9.786;2024-01-16T13:37:40;3.80;;;0.70;;
5391;SDS011;2719;53.624;9.786;2024-01-16T13:40:07;2.07;;;1.00;;
5391;SDS011;2719;53.624;9.786;2024-01-16T13:42:36;2.40;;;0.60;;
5391;SDS011;2719;53.624;9.786;2024-01-16T13:45:05;5.90;;;1.33;;
5391;SDS011;2719;53.624;9.786;2024-01-16T13:47:33;3.57;;;0.70;;
5391;SDS011;2719;53.624;9.786;2024-01-16T13:50:04;3.37;;;0.70;;
5391;SDS011;2719;53.624;9.786;2024-01-16T13:52:33;7.73;;;1.17;;
5391;SDS011;2719;53.624;9.786;2024-01-16T13:55:00;8.10;;;0.70;;
5391;SDS011;2719;53.624;9.786;2024-01-16T13:57:30;11.87;;;0.90;;
5391;SDS011;2719;53.624;9.786;2024-01-16T13:59:57;7.67;;;1.00;;
5391;SDS011;2719;53.624;9.786;2024-01-16T14:02:24;3.00;;;0.60;;
5391;SDS011;2719;53.624;9.786;2024-01-16T14:04:50;8.00;;;0.93;;
5391;SDS011;2719;53.624;9.786;2024-01-16T14:07:17;5.77;;;1.10;;
5391;SDS011;2719;53.624;9.786;2024-01-16T14:09:45;2.73;;;0.70;;
5391;SDS011;2719;53.624;9.786;2024-01-16T14:12:12;12.23;;;1.20;;
5391;SDS011;2719;53.624;9.786;2024-01-16T14:14:39;5.60;;;0.80;;
5391;SDS011;2719;53.624;9.786;2024-01-16T14:17:06;4.13;;;0.90;;
5391;SDS011;2719;53.624;9.786;2024-01-16T14:19:34;5.53;;;1.10;;
5391;SDS011;2719;53.624;9.786;2024-01-16T14:22:00;4.17;;;0.73;;
5391;SDS011;2719;53.624;9.786;2024-01-16T14:24:28;6.47;;;1.00;;
5391;SDS011;2719;53.624;9.786;2024-01-16T14:26:56;3.17;;;0.70;;
5391;SDS011;2719;53.624;9.786;2024-01-16T14:29:23;4.00;;;0.87;;
5391;SDS011;2719;53.624;9.786;2024-01-16T14:31:49;10.67;;;1.23;;
5391;SDS011;2719;53.624;9.786;2024-01-16T14:34:16;2.63;;;0.77;;
5391;SDS011;2719;53.624;9.786;2024-01-16T14:36:44;5.53;;;0.93;;
5391;SDS011;2719;53.624;9.786;2024-01-16T14:39:11;5.00;;;0.83;;
5391;SDS011;2719;53.624;9.786;2024-01-16T14:41:42;3.67;;;1.10;;
5391;SDS011;2719;53.624;9.786;2024-01-16T14:44:10;7.43;;;1.00;;
5391;SDS011;2719;53.624;9.786;2024-01-16T14:46:36;8.30;;;1.10;;
5391;SDS011;2719;53.624;9.786;2024-01-16T14:49:03;6.67;;;1.10;;
5391;SDS011;2719;53.624;9.786;2024-01-16T14:51:30;4.10;;;1.27;;
5391;SDS011;2719;53.624;9.786;2024-01-16T14:53:57;2.70;;;0.80;;
5391;SDS011;2719;53.624;9.786;2024-01-16T14:56:26;20.20;;;1.27;;
5391;SDS011;2719;53.624;9.786;2024-01-16T14:58:53;8.50;;;1.70;;
5391;SDS011;2719;53.624;9.786;2024-01-16T15:01:21;4.80;;;0.90;;
5391;SDS011;2719;53.624;9.786;2024-01-16T15:03:48;1.87;;;0.70;;
5391;SDS011;2719;53.624;9.786;2024-01-16T15:06:15;4.33;;;0.83;;
5391;SDS011;2719;53.624;9.786;2024-01-16T15:08:42;2.00;;;0.90;;
5391;SDS011;2719;53.624;9.786;2024-01-16T15:11:08;3.67;;;0.85;;
5391;SDS011;2719;53.624;9.786;2024-01-16T15:13:35;3.00;;;0.80;;
5391;SDS011;2719;53.624;9.786;2024-01-16T15:16:02;3.00;;;0.67;;
5391;SDS011;2719;53.624;9.786;2024-01-16T15:18:30;4.27;;;0.80;;
5391;SDS011;2719;53.624;9.786;2024-01-16T15:20:57;3.45;;;1.00;;
5391;SDS011;2719;53.624;9.786;2024-01-16T15:23:24;5.50;;;0.90;;
5391;SDS011;2719;53.624;9.786;2024-01-16T15:25:52;2.80;;;1.00;;
5391;SDS011;2719;53.624;9.786;2024-01-16T15:28:19;12.83;;;1.00;;
5391;SDS011;2719;53.624;9.786;2024-01-16T15:30:46;9.10;;;1.20;;